Time;durP1;ratioP1;P1;durP2;ratioP2;P2;SDS_P1;SDS_P2;PMS_P1;PMS_P2;Temp;Humidity;BMP_temperature;BMP_pressure;BME280_temperature;BME280_humidity;BME280_pressure;Samples;Min_cycle;Max_cycle;Signal;HPM_P1;HPM_P2
2022/05/13 00:01:14;;;;;;;11.23;2.30;;;10.10;99.30;;;;;;4915689;29;20551;-76
2022/05/13 00:03:40;;;;;;;11.77;2.13;;;10.10;99.30;;;;;;4904333;29;20039;-77
2022/05/13 00:06:06;;;;;;;9.35;2.40;;;10.10;99.20;;;;;;4904831;29;20307;-76
2022/05/13 00:08:33;;;;;;;9.35;2.00;;;10.10;99.30;;;;;;4902998;29;20052;-76
2022/05/13 00:11:00;;;;;;;9.40;2.28;;;10.10;99.30;;;;;;4904852;29;20288;-75
2022/05/13 00:13:26;;;;;;;13.40;2.17;;;10.10;99.30;;;;;;4901942;29;20128;-76
2022/05/13 00:15:52;;;;;;;11.73;2.45;;;10.10;99.30;;;;;;4905453;29;20523;-75
2022/05/13 00:18:18;;;;;;;13.43;1.92;;;10.10;99.60;;;;;;4905704;29;20086;-75
2022/05/13 00:20:44;;;;;;;11.05;2.08;;;10.10;99.40;;;;;;4905101;29;20187;-77
2022/05/13 00:23:10;;;;;;;8.40;2.42;;;10.10;99.30;;;;;;4887695;29;20559;-77
2022/05/13 00:25:36;;;;;;;7.67;1.80;;;10.10;99.30;;;;;;4899618;29;20090;-76
2022/05/13 00:28:05;;;;;;;11.57;2.35;;;10.00;99.30;;;;;;4905161;29;20032;-75
2022/05/13 00:30:33;;;;;;;8.52;2.20;;;10.00;99.40;;;;;;4905730;29;20074;-77
2022/05/13 00:33:00;;;;;;;8.10;1.63;;;10.00;99.40;;;;;;4904206;29;20363;-76
2022/05/13 00:35:26;;;;;;;8.60;1.60;;;10.00;99.50;;;;;;4904888;29;20028;-76
2022/05/13 00:37:52;;;;;;;9.95;1.60;;;10.00;99.50;;;;;;4905164;29;20036;-77
2022/05/13 00:40:20;;;;;;;6.00;1.30;;;10.00;99.50;;;;;;4904973;29;20040;-77
2022/05/13 00:42:46;;;;;;;9.85;2.33;;;10.00;99.50;;;;;;4902107;29;20024;-77
2022/05/13 00:45:13;;;;;;;4.80;1.90;;;10.00;99.50;;;;;;4903804;29;20040;-77
2022/05/13 00:47:41;;;;;;;10.85;1.83;;;10.00;99.50;;;;;;4905225;29;20280;-77
2022/05/13 00:50:09;;;;;;;8.18;2.25;;;10.00;99.40;;;;;;4904677;29;20508;-77
2022/05/13 00:52:36;;;;;;;9.05;2.35;;;9.90;99.50;;;;;;4906207;29;20058;-77
2022/05/13 00:55:07;;;;;;;8.95;2.22;;;9.90;99.60;;;;;;4902933;29;20036;-77
2022/05/13 00:57:35;;;;;;;8.55;2.22;;;9.80;99.60;;;;;;4901487;29;20056;-75
2022/05/13 01:00:04;;;;;;;6.20;1.88;;;9.80;99.70;;;;;;4894733;29;20041;-77
2022/05/13 01:02:32;;;;;;;12.40;2.28;;;9.70;99.70;;;;;;4895630;29;19918;-77
2022/05/13 01:04:59;;;;;;;11.75;2.17;;;9.70;99.80;;;;;;4903522;29;20115;-77
2022/05/13 01:07:25;;;;;;;11.52;2.00;;;9.70;99.90;;;;;;4901128;29;20036;-77
2022/05/13 01:09:56;;;;;;;11.63;2.40;;;9.60;99.90;;;;;;4894063;29;20059;-77
2022/05/13 01:12:27;;;;;;;7.90;2.22;;;9.60;99.90;;;;;;4905374;29;20131;-78
2022/05/13 01:15:04;;;;;;;5.63;1.87;;;9.60;99.90;;;;;;4903994;29;20044;-77
2022/05/13 01:20:20;;;;;;;12.18;1.70;;;9.60;99.70;;;;;;4886595;29;20071;-75
2022/05/13 01:22:51;;;;;;;6.55;1.38;;;9.60;99.50;;;;;;4892364;29;20084;-77
2022/05/13 01:25:21;;;;;;;5.57;2.15;;;9.50;99.30;;;;;;4901916;29;20028;-76
2022/05/13 01:27:48;;;;;;;8.93;1.70;;;9.50;99.20;;;;;;4905265;29;20072;-74
2022/05/13 01:30:28;;;;;;;4.38;1.55;;;9.50;99.10;;;;;;4907931;29;20036;-76
2022/05/13 01:32:55;;;;;;;7.25;1.70;;;9.40;99.10;;;;;;4900413;29;20036;-75
2022/05/13 01:35:21;;;;;;;9.70;1.27;;;9.40;99.10;;;;;;4906253;29;20516;-77
2022/05/13 01:37:47;;;;;;;6.60;2.28;;;9.40;99.10;;;;;;4908545;29;20091;-77
2022/05/13 01:40:13;;;;;;;6.43;1.30;;;9.40;99.00;;;;;;4900518;29;20029;-77
2022/05/13 01:42:39;;;;;;;6.95;2.35;;;9.40;98.90;;;;;;4907773;29;20543;-78
2022/05/13 01:45:07;;;;;;;6.10;1.10;;;9.30;98.70;;;;;;4907828;29;20036;-79
2022/05/13 01:47:33;;;;;;;6.68;1.38;;;9.40;98.40;;;;;;4926832;29;20031;-78
2022/05/13 01:49:59;;;;;;;4.50;1.00;;;9.60;98.00;;;;;;4907299;29;20491;-76
2022/05/13 01:52:24;;;;;;;3.30;1.00;;;9.50;98.00;;;;;;4904991;29;20103;-78
2022/05/13 01:54:50;;;;;;;1.85;0.93;;;9.60;97.60;;;;;;4904172;29;20057;-78
2022/05/13 01:57:16;;;;;;;3.97;1.00;;;9.60;97.30;;;;;;4908884;29;20488;-77
2022/05/13 01:59:41;;;;;;;3.90;0.82;;;9.60;97.10;;;;;;4905096;29;20071;-77
2022/05/13 02:02:07;;;;;;;1.60;0.70;;;9.60;97.00;;;;;;4905431;29;20044;-77
2022/05/13 02:04:33;;;;;;;;;;;9.60;96.90;;;;;;4906622;29;19921;-78
2022/05/13 02:06:58;;;;;;;;;;;9.60;96.80;;;;;;4903710;29;20060;-79
2022/05/13 02:09:24;;;;;;;;;;;9.60;96.80;;;;;;4901296;29;19923;-78
2022/05/13 02:11:50;;;;;;;;;;;9.60;96.60;;;;;;4905547;29;19923;-77
2022/05/13 02:14:17;;;;;;;;;;;9.50;96.70;;;;;;4902633;29;19915;-78
2022/05/13 02:16:42;;;;;;;;;;;9.50;96.80;;;;;;4907040;29;19915;-78
2022/05/13 02:19:08;;;;;;;;;;;9.50;96.90;;;;;;4908154;29;20401;-77
2022/05/13 02:21:33;;;;;;;;;;;9.50;97.00;;;;;;4907213;29;19918;-75
2022/05/13 02:23:59;;;;;;;;;;;9.60;96.80;;;;;;4903051;29;20383;-77
2022/05/13 02:26:25;;;;;;;;;;;9.60;96.80;;;;;;4888712;29;19923;-78
2022/05/13 02:28:50;;;;;;;;;;;9.60;96.70;;;;;;4889955;29;19926;-78
2022/05/13 02:31:16;;;;;;;;;;;9.60;96.60;;;;;;4903849;29;19926;-78
2022/05/13 02:33:42;;;;;;;;;;;9.50;96.60;;;;;;4920801;29;20306;-79
2022/05/13 02:36:09;;;;;;;2.50;1.10;;;9.60;96.70;;;;;;4906555;29;20024;-77
2022/05/13 02:38:35;;;;;;;1.50;0.85;;;9.50;96.80;;;;;;4904536;29;20044;-78
2022/05/13 02:41:13;;;;;;;4.57;1.13;;;9.50;96.80;;;;;;4902930;29;20041;-78
2022/05/13 02:43:52;;;;;;;1.70;0.80;;;9.50;96.50;;;;;;4895184;29;20055;-73
2022/05/13 02:46:25;;;;;;;4.63;1.17;;;9.50;96.70;;;;;;4904419;29;20283;-77
2022/05/13 02:48:51;;;;;;;8.15;1.60;;;9.50;96.70;;;;;;4909120;29;20039;-77
2022/05/13 02:51:18;;;;;;;7.03;1.75;;;9.50;96.90;;;;;;4905415;29;20048;-76
2022/05/13 02:53:44;;;;;;;4.47;1.52;;;9.40;96.80;;;;;;4905129;29;20123;-78
2022/05/13 02:56:10;;;;;;;4.07;1.55;;;9.40;96.80;;;;;;4907499;29;20074;-77
2022/05/13 02:58:37;;;;;;;5.10;1.15;;;9.50;96.80;;;;;;4907445;29;20118;-76
2022/05/13 03:01:04;;;;;;;2.88;1.17;;;9.40;96.80;;;;;;4907111;29;20036;-77
2022/05/13 03:03:30;;;;;;;4.68;1.00;;;9.30;96.80;;;;;;4907609;29;20491;-76
2022/05/13 03:05:57;;;;;;;5.63;1.10;;;9.40;97.00;;;;;;4893391;29;20040;-76
2022/05/13 03:08:22;;;;;;;4.82;1.15;;;9.30;97.00;;;;;;4900575;29;20048;-78
2022/05/13 03:10:48;;;;;;;4.82;1.10;;;9.40;97.00;;;;;;4901472;29;20037;-77
2022/05/13 03:13:18;;;;;;;1.92;0.95;;;9.30;97.00;;;;;;4899933;29;20032;-78
2022/05/13 03:15:44;;;;;;;2.13;1.08;;;9.30;96.90;;;;;;4895451;29;20036;-78
2022/05/13 03:18:09;;;;;;;4.82;1.15;;;9.30;97.10;;;;;;4893491;29;20032;-77
2022/05/13 03:20:36;;;;;;;2.40;0.80;;;9.30;96.90;;;;;;4902891;29;20119;-76
2022/05/13 03:23:02;;;;;;;3.35;0.82;;;9.20;97.00;;;;;;4905279;29;20035;-78
2022/05/13 03:25:28;;;;;;;4.57;0.82;;;9.20;97.00;;;;;;4907147;29;20027;-77
2022/05/13 03:27:53;;;;;;;4.07;1.20;;;9.20;97.00;;;;;;4906909;29;20027;-76
2022/05/13 03:30:22;;;;;;;5.22;1.33;;;9.20;97.10;;;;;;4906551;29;20070;-76
2022/05/13 03:32:48;;;;;;;4.05;1.00;;;9.20;97.10;;;;;;4900548;29;20292;-77
2022/05/13 03:35:15;;;;;;;5.20;1.55;;;9.10;96.90;;;;;;4903580;29;20215;-77
2022/05/13 03:37:41;;;;;;;1.88;1.10;;;9.20;97.20;;;;;;4907035;29;20036;-77
2022/05/13 03:40:08;;;;;;;2.45;1.25;;;9.20;97.10;;;;;;4905785;29;20099;-77
2022/05/13 03:42:36;;;;;;;1.92;1.20;;;9.10;97.00;;;;;;4900974;29;20055;-78
2022/05/13 03:45:04;;;;;;;1.77;0.90;;;9.00;97.10;;;;;;4904786;29;20123;-76
2022/05/13 03:47:30;;;;;;;5.13;1.08;;;9.10;97.20;;;;;;4906367;29;20083;-78
2022/05/13 03:49:55;;;;;;;6.15;1.10;;;9.10;97.00;;;;;;4901085;29;20443;-77
2022/05/13 03:52:21;;;;;;;3.90;2.20;;;9.20;97.10;;;;;;4904559;29;20044;-77
2022/05/13 03:54:47;;;;;;;;;;;9.10;97.10;;;;;;4905565;29;20005;-77
2022/05/13 03:57:12;;;;;;;4.00;1.10;;;9.10;97.10;;;;;;4906845;29;19911;-76
2022/05/13 03:59:38;;;;;;;4.60;1.10;;;9.10;97.20;;;;;;4905828;29;20398;-76
2022/05/13 04:02:04;;;;;;;3.40;1.20;;;9.10;97.20;;;;;;4906879;29;20254;-76
2022/05/13 04:08:56;;;;;;;5.28;1.08;;;9.10;97.20;;;;;;4905448;29;20123;-76
2022/05/13 04:10:01;;;;;;;3.80;1.20;;;9.10;97.30;;;;;;4906141;29;20058;-77
2022/05/13 04:17:57;;;;;;;4.20;1.10;;;8.90;97.40;;;;;;4904936;29;20530;-78
2022/05/13 04:20:23;;;;;;;3.15;1.30;;;8.90;97.60;;;;;;4901942;29;20403;-78
2022/05/13 04:22:49;;;;;;;9.35;2.20;;;8.80;97.80;;;;;;4919890;29;20523;-77
2022/05/13 04:25:14;;;;;;;6.55;1.65;;;8.80;98.10;;;;;;4897238;29;20407;-76
2022/05/13 04:27:41;;;;;;;4.47;1.20;;;8.80;98.20;;;;;;4886682;29;20035;-77
2022/05/13 04:30:08;;;;;;;3.97;1.00;;;8.80;98.20;;;;;;4902983;29;20035;-77
2022/05/13 04:32:34;;;;;;;5.70;1.15;;;8.70;98.20;;;;;;4898024;29;20412;-77
2022/05/13 04:34:59;;;;;;;2.55;1.20;;;8.80;98.30;;;;;;4903659;29;20037;-78
2022/05/13 04:37:25;;;;;;;3.30;1.40;;;8.90;98.50;;;;;;4905923;29;20107;-77
2022/05/13 04:39:53;;;;;;;3.00;1.33;;;9.00;98.40;;;;;;4904260;29;20036;-77
2022/05/13 04:45:07;;;;;;;4.13;1.35;;;9.20;98.00;;;;;;4904483;29;20570;-77
2022/05/13 04:50:18;;;;;;;4.45;1.40;;;9.30;97.60;;;;;;4902860;29;20468;-77
2022/05/13 04:52:43;;;;;;;5.90;1.20;;;9.40;97.40;;;;;;4904177;29;20081;-77
2022/05/13 04:55:10;;;;;;;5.43;1.20;;;9.50;97.20;;;;;;4905586;29;20480;-78
2022/05/13 04:57:37;;;;;;;4.93;1.30;;;9.60;97.10;;;;;;4904192;29;20044;-76
2022/05/13 05:00:04;;;;;;;6.70;1.30;;;9.60;96.90;;;;;;4904873;29;20520;-77
2022/05/13 05:02:30;;;;;;;4.93;1.08;;;9.70;96.80;;;;;;4903846;29;20071;-77
2022/05/13 05:04:56;;;;;;;4.65;1.33;;;9.80;96.70;;;;;;4909699;29;20056;-77
2022/05/13 05:07:21;;;;;;;5.03;1.08;;;9.80;96.50;;;;;;4910356;29;20098;-77
2022/05/13 05:09:47;;;;;;;8.27;1.42;;;10.00;96.40;;;;;;4907325;29;20131;-77
2022/05/13 05:12:12;;;;;;;7.85;1.30;;;10.00;96.10;;;;;;4910119;29;20047;-77
2022/05/13 05:14:38;;;;;;;6.75;1.00;;;10.20;95.90;;;;;;4907978;29;20444;-77
2022/05/13 05:17:05;;;;;;;8.60;1.73;;;10.30;95.60;;;;;;4907917;29;20028;-77
2022/05/13 05:19:31;;;;;;;4.30;1.10;;;10.40;95.20;;;;;;4909003;29;20071;-76
2022/05/13 05:21:56;;;;;;;4.93;1.20;;;10.40;95.40;;;;;;4908938;29;20064;-76
2022/05/13 05:24:22;;;;;;;4.60;1.20;;;10.60;95.00;;;;;;4909012;29;20032;-76
2022/05/13 05:26:48;;;;;;;;;;;10.70;94.60;;;;;;4909865;29;20567;-77
2022/05/13 05:29:13;;;;;;;;;;;10.70;94.40;;;;;;4921805;29;20430;-78
2022/05/13 05:31:39;;;;;;;3.72;1.13;;;10.90;94.10;;;;;;4907876;29;19929;-79
2022/05/13 05:34:05;;;;;;;3.72;0.90;;;11.00;94.30;;;;;;4895947;29;20108;-78
2022/05/13 05:36:31;;;;;;;3.10;1.10;;;11.00;93.90;;;;;;4903231;29;20148;-78
2022/05/13 05:38:56;;;;;;;5.75;2.00;;;11.10;94.20;;;;;;4907282;29;20032;-77
2022/05/13 05:41:22;;;;;;;;;;;11.20;93.70;;;;;;4907353;29;20467;-77
2022/05/13 05:43:48;;;;;;;4.80;1.20;;;11.20;93.60;;;;;;4907722;29;20371;-77
2022/05/13 05:46:13;;;;;;;5.40;1.00;;;11.30;93.20;;;;;;4908852;29;24072;-74
2022/05/13 05:48:39;;;;;;;;;;;11.50;92.80;;;;;;4899464;29;20044;-78
2022/05/13 05:51:04;;;;;;;;;;;11.50;92.70;;;;;;4899960;29;19923;-76
2022/05/13 05:59:00;;;;;;;;;;;11.80;92.30;;;;;;4897412;29;19993;-76
2022/05/13 06:01:26;;;;;;;;;;;11.90;92.00;;;;;;4901758;29;19919;-78
2022/05/13 06:03:51;;;;;;;;;;;12.00;91.60;;;;;;4906551;29;20429;-79
2022/05/13 06:06:17;;;;;;;;;;;12.10;91.70;;;;;;4903029;29;19963;-78
2022/05/13 06:08:43;;;;;;;;;;;12.30;91.20;;;;;;4901960;29;20594;-77
2022/05/13 06:11:09;;;;;;;;;;;12.30;91.20;;;;;;4897929;29;19927;-77
2022/05/13 06:13:35;;;;;;;;;;;12.40;90.80;;;;;;4901467;29;19915;-76
2022/05/13 06:16:00;;;;;;;;;;;12.50;90.80;;;;;;4903983;29;20305;-77
2022/05/13 06:18:26;;;;;;;;;;;12.60;91.30;;;;;;4906451;29;19915;-79
2022/05/13 06:20:51;;;;;;;;;;;12.70;91.00;;;;;;4900111;29;19994;-79
2022/05/13 06:23:17;;;;;;;;;;;12.80;90.70;;;;;;4901998;29;19915;-76
2022/05/13 06:25:42;;;;;;;;;;;12.90;90.40;;;;;;4900597;29;20067;-76
2022/05/13 06:28:08;;;;;;;;;;;13.00;90.10;;;;;;4885933;29;20371;-77
2022/05/13 06:30:35;;;;;;;;;;;13.10;90.30;;;;;;4910535;29;19930;-77
2022/05/13 06:33:02;;;;;;;;;;;13.20;90.10;;;;;;4898750;29;19919;-76
2022/05/13 06:35:28;;;;;;;;;;;13.30;88.90;;;;;;4898458;29;19926;-77
2022/05/13 06:37:54;;;;;;;;;;;13.40;87.90;;;;;;4901920;29;19914;-76
2022/05/13 06:40:22;;;;;;;;;;;13.50;88.00;;;;;;4897181;29;19938;-78
2022/05/13 06:42:47;;;;;;;;;;;13.70;86.50;;;;;;4907508;29;19942;-76
2022/05/13 06:45:13;;;;;;;;;;;13.90;85.90;;;;;;4906081;29;19979;-75
2022/05/13 06:47:39;;;;;;;;;;;14.00;85.10;;;;;;4905501;29;20547;-77
2022/05/13 06:50:06;;;;;;;;;;;14.10;84.20;;;;;;4904476;29;19922;-78
2022/05/13 06:52:31;;;;;;;;;;;14.10;84.50;;;;;;4911577;29;19927;-76
2022/05/13 06:54:56;;;;;;;;;;;14.20;85.10;;;;;;4900523;29;20422;-73
2022/05/13 06:57:22;;;;;;;;;;;14.40;84.90;;;;;;4896992;29;20445;-75
2022/05/13 06:59:48;;;;;;;;;;;14.50;84.00;;;;;;4905502;29;20009;-74
2022/05/13 07:02:17;;;;;;;;;;;14.60;84.30;;;;;;4906165;29;19915;-76
2022/05/13 07:04:46;;;;;;;;;;;14.90;84.00;;;;;;4904864;29;19915;-73
2022/05/13 07:07:12;;;;;;;;;;;15.20;79.70;;;;;;4904768;29;19919;-78
2022/05/13 07:09:38;;;;;;;;;;;15.20;79.00;;;;;;4902079;29;19978;-77
2022/05/13 07:12:04;;;;;;;;;;;15.30;79.80;;;;;;4897899;29;19947;-74
2022/05/13 07:14:29;;;;;;;;;;;15.50;79.20;;;;;;4894543;29;20626;-79
2022/05/13 07:16:55;;;;;;;;;;;15.70;79.00;;;;;;4901211;29;20794;-76
2022/05/13 07:19:21;;;;;;;;;;;15.70;78.90;;;;;;4897253;29;19919;-73
2022/05/13 07:21:47;;;;;;;33.80;21.08;;;15.80;76.70;;;;;;4902401;29;19994;-80
2022/05/13 07:24:12;;;;;;;9.85;2.00;;;15.80;77.00;;;;;;4895648;29;20052;-78
2022/05/13 07:26:38;;;;;;;7.72;2.10;;;15.90;75.20;;;;;;4889293;29;20032;-77
2022/05/13 07:29:05;;;;;;;5.07;1.63;;;15.90;75.90;;;;;;4901400;29;20123;-78
2022/05/13 07:31:31;;;;;;;7.95;1.95;;;16.10;74.50;;;;;;4901962;29;20047;-79
2022/05/13 07:33:57;;;;;;;8.98;2.08;;;16.30;75.50;;;;;;4900079;29;20038;-78
2022/05/13 07:36:22;;;;;;;5.85;1.77;;;16.40;73.00;;;;;;4895085;29;20032;-79
2022/05/13 07:41:32;;;;;;;6.97;1.77;;;17.10;72.00;;;;;;4900892;29;20559;-75
2022/05/13 07:43:58;;;;;;;7.30;2.05;;;18.20;70.20;;;;;;4905325;29;20039;-76
2022/05/13 07:46:24;;;;;;;5.47;1.45;;;19.30;65.00;;;;;;4902967;29;20066;-81
2022/05/13 07:48:51;;;;;;;10.90;1.88;;;20.20;60.50;;;;;;4899114;29;20032;-79
2022/05/13 07:51:17;;;;;;;6.78;1.80;;;21.00;59.20;;;;;;4903645;29;20508;-78
2022/05/13 07:53:44;;;;;;;4.00;1.38;;;22.40;55.50;;;;;;4899749;29;20028;-80
2022/05/13 07:56:09;;;;;;;6.63;1.50;;;22.80;54.80;;;;;;4913699;29;20601;-80
2022/05/13 07:58:36;;;;;;;6.60;1.67;;;22.90;52.10;;;;;;4901159;29;20028;-77
2022/05/13 08:01:02;;;;;;;7.20;1.83;;;23.80;50.00;;;;;;4901322;29;20039;-79
2022/05/13 08:03:30;;;;;;;5.78;1.30;;;25.10;46.50;;;;;;4905357;29;20350;-80
2022/05/13 08:06:02;;;;;;;7.45;1.48;;;26.10;45.70;;;;;;4900865;29;20035;-79
2022/05/13 08:08:31;;;;;;;4.57;1.75;;;26.20;43.60;;;;;;4901831;29;20608;-78
2022/05/13 08:10:59;;;;;;;7.50;2.08;;;24.50;42.60;;;;;;4896122;29;20500;-77
2022/05/13 08:13:26;;;;;;;6.68;1.70;;;23.70;45.40;;;;;;4893104;29;20499;-77
2022/05/13 08:15:52;;;;;;;5.88;1.30;;;23.10;48.90;;;;;;4894968;29;20040;-78
2022/05/13 08:18:20;;;;;;;7.18;1.77;;;22.00;49.90;;;;;;4899048;29;20038;-80
2022/05/13 08:20:47;;;;;;;4.43;1.33;;;22.90;50.70;;;;;;4898972;29;20024;-81
2022/05/13 08:23:13;;;;;;;9.57;1.60;;;24.10;47.10;;;;;;4898923;29;20166;-80
2022/05/13 08:25:39;;;;;;;8.98;1.67;;;24.70;46.20;;;;;;4895065;29;20032;-79
2022/05/13 08:28:06;;;;;;;5.35;1.55;;;25.50;46.70;;;;;;4900551;29;20035;-81
2022/05/13 08:30:32;;;;;;;5.13;1.25;;;25.50;45.20;;;;;;4899169;29;20029;-80
2022/05/13 08:33:01;;;;;;;4.88;1.55;;;24.00;45.60;;;;;;4903350;29;20463;-80
2022/05/13 08:35:27;;;;;;;11.23;2.30;;;22.10;47.80;;;;;;4904598;29;20176;-80
2022/05/13 08:37:53;;;;;;;9.20;1.73;;;21.80;51.80;;;;;;4900531;29;20044;-79
2022/05/13 08:40:35;;;;;;;6.57;1.35;;;20.50;54.80;;;;;;4892169;29;20551;-76
2022/05/13 08:43:05;;;;;;;11.02;2.03;;;19.80;57.60;;;;;;4895003;29;20304;-79
2022/05/13 08:45:31;;;;;;;11.93;2.28;;;19.30;60.30;;;;;;4896662;29;20030;-78
2022/05/13 08:47:59;;;;;;;7.15;1.88;;;18.80;62.80;;;;;;4893994;29;20032;-78
2022/05/13 08:50:39;;;;;;;11.32;1.75;;;19.00;63.60;;;;;;4895726;29;20043;-80
2022/05/13 08:53:26;;;;;;;9.40;2.38;;;20.10;61.40;;;;;;4894098;29;20425;-75
2022/05/13 08:56:01;;;;;;;7.05;1.45;;;20.90;56.60;;;;;;4887736;29;20062;-76
2022/05/13 08:58:56;;;;;;;8.00;1.55;;;20.90;56.10;;;;;;4895127;29;20016;-76
2022/05/13 09:01:28;;;;;;;4.95;1.55;;;20.40;58.90;;;;;;4892732;29;20040;-75
2022/05/13 09:03:59;;;;;;;7.40;1.98;;;19.70;57.80;;;;;;4899755;29;20044;-80
2022/05/13 09:06:37;;;;;;;11.75;2.15;;;18.80;63.50;;;;;;4894338;29;20028;-78
2022/05/13 09:09:04;;;;;;;9.38;1.70;;;18.20;65.60;;;;;;4893199;29;20056;-77
2022/05/13 09:11:45;;;;;;;6.55;1.52;;;18.50;65.90;;;;;;4899351;29;20036;-79
2022/05/13 09:14:21;;;;;;;6.60;2.05;;;19.40;62.90;;;;;;4898240;29;20609;-79
2022/05/13 09:17:13;;;;;;;8.00;2.13;;;19.70;62.00;;;;;;4899731;29;20036;-78
2022/05/13 09:19:53;;;;;;;13.05;2.33;;;19.20;61.60;;;;;;4896761;29;20029;-79
2022/05/13 09:22:19;;;;;;;11.63;1.85;;;18.40;65.20;;;;;;4896396;29;20256;-76
2022/05/13 09:24:45;;;;;;;32.40;3.38;;;17.90;67.00;;;;;;4901825;29;20176;-73
2022/05/13 09:27:12;;;;;;;5.65;1.70;;;17.80;68.00;;;;;;4900800;29;20035;-75
2022/05/13 09:29:43;;;;;;;6.72;1.50;;;18.60;67.10;;;;;;4901819;29;20024;-78
2022/05/13 09:32:24;;;;;;;6.03;1.50;;;20.60;60.60;;;;;;4906230;29;20088;-80
2022/05/13 09:35:08;;;;;;;5.07;1.52;;;21.50;56.00;;;;;;4905072;29;20538;-76
2022/05/13 09:37:43;;;;;;;19.67;2.55;;;21.90;56.80;;;;;;4903880;29;20087;-76
2022/05/13 09:40:21;;;;;;;7.03;1.70;;;22.30;54.10;;;;;;4902962;29;20028;-74
2022/05/13 09:42:48;;;;;;;;;;;22.90;49.40;;;;;;4905813;29;20039;-76
2022/05/13 09:45:17;;;;;;;;;;;22.40;53.10;;;;;;4904186;29;19994;-80
2022/05/13 09:47:44;;;;;;;;;;;23.00;54.20;;;;;;4898488;29;19915;-75
2022/05/13 09:50:24;;;;;;;;;;;23.40;52.10;;;;;;4900779;29;20022;-77
2022/05/13 09:52:49;;;;;;;;;;;22.60;50.30;;;;;;4564661;29;9999750;-76
2022/05/13 09:55:23;;;;;;;;;;;21.70;54.20;;;;;;4901369;29;19915;-75
2022/05/13 09:57:52;;;;;;;;;;;21.20;56.30;;;;;;4900520;29;20372;-76
2022/05/13 10:00:22;;;;;;;;;;;20.30;59.60;;;;;;4902923;29;19922;-75
2022/05/13 10:02:49;;;;;;;;;;;19.90;61.10;;;;;;4902330;29;20287;-77
2022/05/13 10:05:23;;;;;;;;;;;19.50;62.90;;;;;;4900799;29;19915;-76
2022/05/13 10:07:51;;;;;;;;;;;20.40;66.00;;;;;;4898740;29;20275;-72
2022/05/13 10:16:01;;;;;;;;;;;20.20;60.60;;;;;;4903423;29;19966;-75
2022/05/13 10:18:29;;;;;;;;;;;20.00;63.20;;;;;;4902513;29;19922;-73
2022/05/13 10:21:06;;;;;;;;;;;19.80;64.30;;;;;;4900575;29;19922;-75
2022/05/13 10:23:50;;;;;;;;;;;19.60;65.50;;;;;;4896965;29;19925;-77
2022/05/13 10:26:18;;;;;;;;;;;19.90;65.00;;;;;;4888457;29;21501;-76
2022/05/13 10:29:04;;;;;;;;;;;20.50;66.70;;;;;;4890666;29;19921;-74
2022/05/13 10:31:33;;;;;;;;;;;20.30;64.50;;;;;;4897192;29;20146;-74
2022/05/13 10:34:03;;;;;;;;;;;19.80;63.40;;;;;;4895280;29;20346;-79
2022/05/13 10:36:46;;;;;;;;;;;19.30;63.10;;;;;;4899564;29;20007;-75
2022/05/13 10:39:31;;;;;;;;;;;18.80;64.10;;;;;;4902913;29;20022;-77
2022/05/13 10:41:58;;;;;;;;;;;18.10;66.70;;;;;;4896398;29;20450;-74
2022/05/13 10:44:32;;;;;;;;;;;17.90;70.50;;;;;;4895883;29;19917;-79
2022/05/13 10:46:59;;;;;;;;;;;17.80;67.90;;;;;;4895924;29;19915;-78
2022/05/13 10:49:30;;;;;;;;;;;17.90;69.40;;;;;;4897441;29;20305;-75
2022/05/13 10:52:01;;;;;;;;;;;17.90;68.70;;;;;;4900825;29;20298;-74
2022/05/13 10:54:43;;;;;;;;;;;17.80;67.90;;;;;;4899452;29;19946;-78
2022/05/13 10:57:24;;;;;;;;;;;18.30;68.60;;;;;;4899011;29;19946;-76
2022/05/13 11:00:02;;;;;;;;;;;19.50;69.50;;;;;;4897661;29;19926;-74
2022/05/13 11:02:47;;;;;;;;;;;19.80;62.20;;;;;;4901741;29;20059;-75
2022/05/13 11:05:31;;;;;;;;;;;19.40;63.00;;;;;;4902059;29;19922;-76
2022/05/13 11:08:09;;;;;;;;;;;18.60;67.00;;;;;;4898320;29;20388;-75
2022/05/13 11:10:49;;;;;;;;;;;18.10;70.20;;;;;;4893918;29;19926;-72
2022/05/13 11:13:17;;;;;;;;;;;18.00;68.10;;;;;;4900371;29;20817;-74
2022/05/13 11:15:52;;;;;;;;;;;18.10;70.70;;;;;;4902107;29;19970;-74
2022/05/13 11:18:26;;;;;;;;;;;18.30;71.00;;;;;;4558976;28;9999718;-74
2022/05/13 11:21:21;;;;;;;;;;;18.20;71.10;;;;;;4895156;29;19919;-74
2022/05/13 11:25:54;;;;;;;;;;;18.40;69.90;;;;;;4895553;29;19950;-75
2022/05/13 11:26:37;;;;;;;;;;;18.20;67.50;;;;;;4896677;29;19910;-77
2022/05/13 11:29:09;;;;;;;;;;;18.60;70.10;;;;;;4894552;29;19921;-74
2022/05/13 11:31:41;;;;;;;;;;;19.40;69.10;;;;;;4901153;29;19927;-74
2022/05/13 11:34:19;;;;;;;;;;;19.90;64.00;;;;;;4895399;29;19915;-76
2022/05/13 11:36:49;;;;;;;;;;;20.20;61.40;;;;;;4896083;29;19915;-74
2022/05/13 11:39:23;;;;;;;;;;;20.20;63.20;;;;;;4896691;29;19919;-74
2022/05/13 11:42:03;;;;;;;;;;;20.30;59.50;;;;;;4899016;29;19915;-74
2022/05/13 11:44:37;;;;;;;;;;;20.30;62.10;;;;;;4899635;29;19926;-75
2022/05/13 11:47:09;;;;;;;;;;;20.30;62.10;;;;;;4901319;29;19990;-74
2022/05/13 11:49:36;;;;;;;;;;;20.20;61.00;;;;;;4899194;29;20143;-75
2022/05/13 11:52:10;;;;;;;;;;;19.80;65.50;;;;;;4903728;29;20029;-76
2022/05/13 11:54:36;;;;;;;;;;;19.80;65.00;;;;;;4900681;29;19919;-75
2022/05/13 11:57:17;;;;;;;;;;;19.10;63.90;;;;;;4897194;29;20382;-75
2022/05/13 11:59:45;;;;;;;;;;;19.00;67.80;;;;;;4899502;29;19919;-75
2022/05/13 12:02:13;;;;;;;;;;;19.30;67.90;;;;;;4897438;29;19915;-76
2022/05/13 12:04:59;;;;;;;;;;;19.60;63.90;;;;;;4883569;29;19915;-74
2022/05/13 12:07:26;;;;;;;;;;;19.70;63.90;;;;;;4911480;29;19919;-75
2022/05/13 12:09:55;;;;;;;;;;;19.50;65.20;;;;;;4898064;29;20449;-80
2022/05/13 12:12:24;;;;;;;;;;;19.20;63.60;;;;;;4906240;29;19923;-85
2022/05/13 12:14:55;;;;;;;;;;;19.10;64.60;;;;;;4899214;29;20017;-76
2022/05/13 12:17:26;;;;;;;;;;;19.10;65.80;;;;;;4899833;29;20002;-83
2022/05/13 12:19:52;;;;;;;;;;;19.20;67.30;;;;;;4562480;28;10000330;-80
2022/05/13 12:22:30;;;;;;;;;;;20.00;67.00;;;;;;4899104;29;20669;-79
2022/05/13 12:25:09;;;;;;;10.90;3.65;;;20.80;64.30;;;;;;4897617;29;20256;-79
2022/05/13 12:27:39;;;;;;;13.88;2.35;;;21.60;66.50;;;;;;4897127;29;20032;-83
2022/05/13 12:30:34;;;;;;;7.40;2.17;;;22.40;60.90;;;;;;4900325;29;20048;-82
2022/05/13 12:33:29;;;;;;;10.98;2.60;;;22.00;54.70;;;;;;4903520;29;20115;-81
2022/05/13 12:39:10;;;;;;;6.57;1.92;;;20.90;63.00;;;;;;4903100;29;20055;-82
2022/05/13 12:41:42;;;;;;;13.88;1.88;;;21.40;62.40;;;;;;4872639;29;20044;-80
2022/05/13 12:44:15;;;;;;;;;;;21.90;59.70;;;;;;4906489;29;20036;-84
2022/05/13 12:46:48;;;;;;;14.60;2.33;;;22.30;64.10;;;;;;4905308;29;19915;-79
2022/05/13 12:49:23;;;;;;;9.00;2.70;;;22.50;63.30;;;;;;4902686;29;20747;-79
2022/05/13 12:52:09;;;;;;;9.45;2.15;;;22.60;58.60;;;;;;4900469;29;25135;-76
2022/05/13 12:55:15;;;;;;;12.45;2.78;;;22.10;53.70;;;;;;4904869;29;20032;-83
2022/05/13 12:57:44;;;;;;;11.73;2.55;;;21.60;58.80;;;;;;4896001;29;20060;-81
2022/05/13 13:00:42;;;;;;;12.88;3.17;;;21.30;60.70;;;;;;4897615;29;20044;-78
2022/05/13 13:03:12;;;;;;;12.43;2.83;;;21.00;59.90;;;;;;4889286;29;20040;-78
2022/05/13 13:05:38;;;;;;;;;;;21.20;62.30;;;;;;4892163;29;20031;-77
2022/05/13 13:11:07;;;;;;;8.40;2.00;;;21.50;60.10;;;;;;5056595;28;19924;-75
2022/05/13 13:13:45;;;;;;;15.00;2.60;;;21.10;57.20;;;;;;5063371;28;19911;-75
2022/05/13 13:16:19;;;;;;;18.90;3.00;;;21.00;62.50;;;;;;5061928;28;20049;-74
2022/05/13 13:18:45;;;;;;;;;;;20.90;63.70;;;;;;5052178;28;19966;-71
2022/05/13 13:21:14;;;;;;;13.60;2.70;;;21.00;61.60;;;;;;5059277;28;19916;-75
2022/05/13 13:23:43;;;;;;;12.00;2.00;;;21.00;63.60;;;;;;5072026;28;20032;-75
2022/05/13 13:26:11;;;;;;;12.50;2.28;;;20.60;62.20;;;;;;5061383;28;20480;-74
2022/05/13 13:28:40;;;;;;;10.68;1.95;;;20.80;65.30;;;;;;5064707;28;20029;-75
2022/05/13 13:31:23;;;;;;;16.33;4.30;;;20.90;59.70;;;;;;5076733;28;20131;-74
2022/05/13 13:33:53;;;;;;;14.90;2.35;;;20.80;67.90;;;;;;5054099;28;20189;-74
2022/05/13 13:36:33;;;;;;;12.55;2.30;;;20.60;60.90;;;;;;5066245;28;20063;-74
2022/05/13 13:39:00;;;;;;;16.03;2.93;;;20.30;64.00;;;;;;5071044;28;20036;-72
2022/05/13 13:41:35;;;;;;;7.55;2.35;;;20.20;64.60;;;;;;5062936;28;20036;-75
2022/05/13 13:44:06;;;;;;;7.57;2.42;;;19.70;66.80;;;;;;5067471;28;20121;-74
2022/05/13 13:46:43;;;;;;;;;;;19.20;67.00;;;;;;5057861;28;20432;-74
2022/05/13 13:49:12;;;;;;;;;;;18.90;65.40;;;;;;5056986;28;20029;-74
2022/05/13 13:51:52;;;;;;;;;;;18.70;68.20;;;;;;5058366;28;20024;-75
2022/05/13 13:54:18;;;;;;;;;;;18.80;69.90;;;;;;5056443;28;19955;-74
2022/05/13 13:56:50;;;;;;;;;;;19.10;70.00;;;;;;5057113;28;20326;-74
2022/05/13 13:59:23;;;;;;;;;;;19.40;73.00;;;;;;5054133;28;19919;-75
2022/05/13 14:01:50;;;;;;;;;;;19.80;65.00;;;;;;5056449;28;20012;-75
2022/05/13 14:04:20;;;;;;;;;;;20.20;66.20;;;;;;5056238;28;19922;-74
2022/05/13 14:06:46;;;;;;;;;;;20.30;61.20;;;;;;5059078;28;19912;-74
2022/05/13 14:09:21;;;;;;;;;;;19.90;64.10;;;;;;5060307;28;20419;-74
2022/05/13 14:11:48;;;;;;;;;;;19.90;65.20;;;;;;5073038;28;19912;-75